Patton, Pennsylvania
Current Conditions -  °F | °C
As of 9:35 AM on Saturday 22 Nov 2014 (Local Time) from KIDI Reporting Station
Scattered Clouds Scattered Clouds  
Wind Chill: 36°   Ceiling: Unl
Heat Index: 36°   Visibility: 10mi
Dew Point: 12°   Wind: 3mph
Humidity: 38%   Direction: NA
Pressure: 30.34"   Gusts: NA
Location:  40.63°N, 78.65°W
Report Text: KIDI 221435Z AUTO VRB03KT 10SM SCT065 02/M11 A3034 RMK A01
Loading
Personal Weather Stations






























Interactive Weather Map New forecast layout! Learn more

10-Day Weather Forecast

Advertisements
Track Severe Weather on mobile